sensor_id;sensor_type;location;lat;lon;timestamp;P1;durP1;ratioP1;P2;durP2;ratioP2
10132;SDS011;5106;50.926;7.080;2023-04-25T00:00:47;10.17;;;4.17;;
10132;SDS011;5106;50.926;7.080;2023-04-25T00:03:13;9.90;;;4.07;;
10132;SDS011;5106;50.926;7.080;2023-04-25T00:05:38;7.20;;;3.83;;
10132;SDS011;5106;50.926;7.080;2023-04-25T00:08:04;7.33;;;3.67;;
10132;SDS011;5106;50.926;7.080;2023-04-25T00:10:30;8.10;;;3.67;;
10132;SDS011;5106;50.926;7.080;2023-04-25T00:12:56;8.50;;;3.77;;
10132;SDS011;5106;50.926;7.080;2023-04-25T00:15:22;8.20;;;3.80;;
10132;SDS011;5106;50.926;7.080;2023-04-25T00:17:49;14.27;;;3.93;;
10132;SDS011;5106;50.926;7.080;2023-04-25T00:20:15;8.97;;;3.47;;
10132;SDS011;5106;50.926;7.080;2023-04-25T00:22:40;8.77;;;3.83;;
10132;SDS011;5106;50.926;7.080;2023-04-25T00:25:06;10.00;;;3.83;;
10132;SDS011;5106;50.926;7.080;2023-04-25T00:27:32;10.50;;;4.33;;
10132;SDS011;5106;50.926;7.080;2023-04-25T00:29:57;8.10;;;4.03;;
10132;SDS011;5106;50.926;7.080;2023-04-25T00:32:23;9.17;;;4.00;;
10132;SDS011;5106;50.926;7.080;2023-04-25T00:34:49;7.47;;;3.50;;
10132;SDS011;5106;50.926;7.080;2023-04-25T00:37:15;9.60;;;3.97;;
10132;SDS011;5106;50.926;7.080;2023-04-25T00:39:40;8.30;;;3.90;;
10132;SDS011;5106;50.926;7.080;2023-04-25T00:42:06;7.83;;;3.90;;
10132;SDS011;5106;50.926;7.080;2023-04-25T00:44:33;7.73;;;3.90;;
10132;SDS011;5106;50.926;7.080;2023-04-25T00:47:01;6.93;;;3.73;;
10132;SDS011;5106;50.926;7.080;2023-04-25T00:49:27;8.97;;;3.70;;
10132;SDS011;5106;50.926;7.080;2023-04-25T00:51:53;7.17;;;3.80;;
10132;SDS011;5106;50.926;7.080;2023-04-25T00:54:22;8.40;;;3.70;;
10132;SDS011;5106;50.926;7.080;2023-04-25T00:56:48;8.90;;;3.73;;
10132;SDS011;5106;50.926;7.080;2023-04-25T00:59:14;10.83;;;4.20;;
10132;SDS011;5106;50.926;7.080;2023-04-25T01:01:40;9.77;;;3.57;;
10132;SDS011;5106;50.926;7.080;2023-04-25T01:04:06;9.47;;;3.80;;
10132;SDS011;5106;50.926;7.080;2023-04-25T01:06:42;6.73;;;3.63;;
10132;SDS011;5106;50.926;7.080;2023-04-25T01:09:08;7.30;;;3.70;;
10132;SDS011;5106;50.926;7.080;2023-04-25T01:11:34;10.93;;;3.30;;
10132;SDS011;5106;50.926;7.080;2023-04-25T01:14:00;6.60;;;3.57;;
10132;SDS011;5106;50.926;7.080;2023-04-25T01:16:26;7.47;;;3.60;;
10132;SDS011;5106;50.926;7.080;2023-04-25T01:18:52;6.83;;;3.20;;
10132;SDS011;5106;50.926;7.080;2023-04-25T01:21:20;9.37;;;3.77;;
10132;SDS011;5106;50.926;7.080;2023-04-25T01:24:00;11.20;;;3.63;;
10132;SDS011;5106;50.926;7.080;2023-04-25T01:26:25;8.20;;;3.70;;
10132;SDS011;5106;50.926;7.080;2023-04-25T01:29:03;13.23;;;4.20;;
10132;SDS011;5106;50.926;7.080;2023-04-25T01:31:49;9.03;;;3.73;;
10132;SDS011;5106;50.926;7.080;2023-04-25T01:34:22;7.83;;;3.70;;
10132;SDS011;5106;50.926;7.080;2023-04-25T01:36:51;7.87;;;3.80;;
10132;SDS011;5106;50.926;7.080;2023-04-25T01:39:17;9.97;;;3.83;;
10132;SDS011;5106;50.926;7.080;2023-04-25T01:41:44;13.00;;;4.20;;
10132;SDS011;5106;50.926;7.080;2023-04-25T01:44:11;10.90;;;3.97;;
10132;SDS011;5106;50.926;7.080;2023-04-25T01:46:37;7.17;;;3.43;;
10132;SDS011;5106;50.926;7.080;2023-04-25T01:49:03;11.80;;;3.93;;
10132;SDS011;5106;50.926;7.080;2023-04-25T01:51:33;7.50;;;3.90;;
10132;SDS011;5106;50.926;7.080;2023-04-25T01:54:00;10.13;;;3.73;;
10132;SDS011;5106;50.926;7.080;2023-04-25T01:56:29;8.00;;;4.37;;
10132;SDS011;5106;50.926;7.080;2023-04-25T01:58:55;7.20;;;3.97;;
10132;SDS011;5106;50.926;7.080;2023-04-25T02:01:22;8.00;;;3.73;;
10132;SDS011;5106;50.926;7.080;2023-04-25T02:03:48;9.40;;;3.77;;
10132;SDS011;5106;50.926;7.080;2023-04-25T02:06:13;8.77;;;4.23;;
10132;SDS011;5106;50.926;7.080;2023-04-25T02:08:39;9.20;;;3.73;;
10132;SDS011;5106;50.926;7.080;2023-04-25T02:11:04;9.73;;;3.83;;
10132;SDS011;5106;50.926;7.080;2023-04-25T02:13:30;9.57;;;3.27;;
10132;SDS011;5106;50.926;7.080;2023-04-25T02:15:56;10.67;;;4.00;;
10132;SDS011;5106;50.926;7.080;2023-04-25T02:18:22;8.53;;;3.80;;
10132;SDS011;5106;50.926;7.080;2023-04-25T02:20:48;7.90;;;4.07;;
10132;SDS011;5106;50.926;7.080;2023-04-25T02:23:13;11.47;;;4.17;;
10132;SDS011;5106;50.926;7.080;2023-04-25T02:25:40;11.40;;;3.90;;
10132;SDS011;5106;50.926;7.080;2023-04-25T02:28:06;10.97;;;3.97;;
10132;SDS011;5106;50.926;7.080;2023-04-25T02:30:31;10.00;;;3.50;;
10132;SDS011;5106;50.926;7.080;2023-04-25T02:32:57;8.47;;;3.70;;
10132;SDS011;5106;50.926;7.080;2023-04-25T02:35:23;6.90;;;3.70;;
10132;SDS011;5106;50.926;7.080;2023-04-25T02:37:48;13.97;;;4.03;;
10132;SDS011;5106;50.926;7.080;2023-04-25T02:40:14;9.40;;;4.20;;
10132;SDS011;5106;50.926;7.080;2023-04-25T02:42:43;7.47;;;3.27;;
10132;SDS011;5106;50.926;7.080;2023-04-25T02:45:13;10.70;;;4.07;;
10132;SDS011;5106;50.926;7.080;2023-04-25T02:47:39;8.87;;;3.43;;
10132;SDS011;5106;50.926;7.080;2023-04-25T02:50:05;11.30;;;4.23;;
10132;SDS011;5106;50.926;7.080;2023-04-25T02:52:31;11.37;;;3.70;;
10132;SDS011;5106;50.926;7.080;2023-04-25T02:54:59;6.40;;;3.33;;
10132;SDS011;5106;50.926;7.080;2023-04-25T02:57:24;10.00;;;3.47;;
10132;SDS011;5106;50.926;7.080;2023-04-25T02:59:50;6.07;;;3.40;;
10132;SDS011;5106;50.926;7.080;2023-04-25T03:02:15;8.53;;;3.30;;
10132;SDS011;5106;50.926;7.080;2023-04-25T03:04:41;6.30;;;3.70;;
10132;SDS011;5106;50.926;7.080;2023-04-25T03:07:07;7.67;;;3.60;;
10132;SDS011;5106;50.926;7.080;2023-04-25T03:09:32;7.57;;;3.43;;
10132;SDS011;5106;50.926;7.080;2023-04-25T03:11:58;7.07;;;3.10;;
10132;SDS011;5106;50.926;7.080;2023-04-25T03:14:23;5.80;;;3.00;;
10132;SDS011;5106;50.926;7.080;2023-04-25T03:16:49;6.30;;;3.13;;
10132;SDS011;5106;50.926;7.080;2023-04-25T03:19:15;4.80;;;2.97;;
10132;SDS011;5106;50.926;7.080;2023-04-25T03:21:43;6.90;;;3.30;;
10132;SDS011;5106;50.926;7.080;2023-04-25T03:24:09;5.67;;;2.97;;
10132;SDS011;5106;50.926;7.080;2023-04-25T03:26:36;6.23;;;3.00;;
10132;SDS011;5106;50.926;7.080;2023-04-25T03:29:01;7.27;;;3.10;;
10132;SDS011;5106;50.926;7.080;2023-04-25T03:31:27;4.77;;;2.93;;
10132;SDS011;5106;50.926;7.080;2023-04-25T03:33:52;5.53;;;3.23;;
10132;SDS011;5106;50.926;7.080;2023-04-25T03:36:18;6.47;;;3.10;;
10132;SDS011;5106;50.926;7.080;2023-04-25T03:38:44;6.60;;;3.23;;
10132;SDS011;5106;50.926;7.080;2023-04-25T03:41:10;5.47;;;2.97;;
10132;SDS011;5106;50.926;7.080;2023-04-25T03:43:35;4.70;;;2.73;;
10132;SDS011;5106;50.926;7.080;2023-04-25T03:46:01;5.87;;;2.43;;
10132;SDS011;5106;50.926;7.080;2023-04-25T03:48:26;7.43;;;2.60;;
10132;SDS011;5106;50.926;7.080;2023-04-25T03:50:53;5.23;;;2.83;;
10132;SDS011;5106;50.926;7.080;2023-04-25T03:53:18;4.73;;;2.97;;
10132;SDS011;5106;50.926;7.080;2023-04-25T03:55:44;7.27;;;3.03;;
10132;SDS011;5106;50.926;7.080;2023-04-25T03:58:10;5.20;;;3.03;;
10132;SDS011;5106;50.926;7.080;2023-04-25T04:00:38;5.73;;;3.00;;
10132;SDS011;5106;50.926;7.080;2023-04-25T04:03:04;11.17;;;3.50;;
10132;SDS011;5106;50.926;7.080;2023-04-25T04:05:29;5.43;;;2.97;;
10132;SDS011;5106;50.926;7.080;2023-04-25T04:07:55;6.60;;;3.30;;
10132;SDS011;5106;50.926;7.080;2023-04-25T04:10:21;7.20;;;3.57;;
10132;SDS011;5106;50.926;7.080;2023-04-25T04:12:47;4.17;;;2.80;;
10132;SDS011;5106;50.926;7.080;2023-04-25T04:15:13;6.40;;;3.10;;
10132;SDS011;5106;50.926;7.080;2023-04-25T04:17:38;6.10;;;3.20;;
10132;SDS011;5106;50.926;7.080;2023-04-25T04:20:05;8.90;;;3.70;;
10132;SDS011;5106;50.926;7.080;2023-04-25T04:22:32;11.80;;;3.30;;
10132;SDS011;5106;50.926;7.080;2023-04-25T04:24:57;8.83;;;3.70;;
10132;SDS011;5106;50.926;7.080;2023-04-25T04:27:23;5.93;;;3.70;;
10132;SDS011;5106;50.926;7.080;2023-04-25T04:29:49;9.17;;;3.97;;
10132;SDS011;5106;50.926;7.080;2023-04-25T04:32:17;14.13;;;4.03;;
10132;SDS011;5106;50.926;7.080;2023-04-25T04:34:42;13.07;;;4.57;;
10132;SDS011;5106;50.926;7.080;2023-04-25T04:37:08;8.43;;;4.40;;
10132;SDS011;5106;50.926;7.080;2023-04-25T04:39:35;8.93;;;4.30;;
10132;SDS011;5106;50.926;7.080;2023-04-25T04:42:01;10.93;;;4.07;;
10132;SDS011;5106;50.926;7.080;2023-04-25T04:44:26;10.70;;;4.67;;
10132;SDS011;5106;50.926;7.080;2023-04-25T04:46:53;8.73;;;3.93;;
10132;SDS011;5106;50.926;7.080;2023-04-25T04:49:19;9.93;;;4.70;;
10132;SDS011;5106;50.926;7.080;2023-04-25T04:51:45;11.30;;;5.00;;
10132;SDS011;5106;50.926;7.080;2023-04-25T04:54:10;7.90;;;4.53;;
10132;SDS011;5106;50.926;7.080;2023-04-25T04:56:36;6.77;;;4.10;;
10132;SDS011;5106;50.926;7.080;2023-04-25T04:59:01;10.70;;;5.20;;
10132;SDS011;5106;50.926;7.080;2023-04-25T05:01:27;10.23;;;5.03;;
10132;SDS011;5106;50.926;7.080;2023-04-25T05:03:54;7.27;;;4.50;;
10132;SDS011;5106;50.926;7.080;2023-04-25T05:06:25;12.30;;;5.27;;
10132;SDS011;5106;50.926;7.080;2023-04-25T05:08:51;14.10;;;5.67;;
10132;SDS011;5106;50.926;7.080;2023-04-25T05:11:17;11.70;;;5.87;;
10132;SDS011;5106;50.926;7.080;2023-04-25T05:13:43;14.07;;;5.00;;
10132;SDS011;5106;50.926;7.080;2023-04-25T05:16:10;11.50;;;5.80;;
10132;SDS011;5106;50.926;7.080;2023-04-25T05:18:36;15.00;;;5.07;;
10132;SDS011;5106;50.926;7.080;2023-04-25T05:21:02;12.53;;;5.30;;
10132;SDS011;5106;50.926;7.080;2023-04-25T05:23:28;10.70;;;5.47;;
10132;SDS011;5106;50.926;7.080;2023-04-25T05:25:55;13.53;;;6.03;;
10132;SDS011;5106;50.926;7.080;2023-04-25T05:28:21;13.17;;;5.20;;
10132;SDS011;5106;50.926;7.080;2023-04-25T05:30:47;13.30;;;5.37;;
10132;SDS011;5106;50.926;7.080;2023-04-25T05:33:13;9.13;;;5.30;;
10132;SDS011;5106;50.926;7.080;2023-04-25T05:35:41;8.57;;;5.10;;
10132;SDS011;5106;50.926;7.080;2023-04-25T05:38:07;14.07;;;6.20;;
10132;SDS011;5106;50.926;7.080;2023-04-25T05:40:33;13.07;;;5.30;;
10132;SDS011;5106;50.926;7.080;2023-04-25T05:42:58;11.57;;;5.80;;
10132;SDS011;5106;50.926;7.080;2023-04-25T05:45:24;16.87;;;6.20;;
10132;SDS011;5106;50.926;7.080;2023-04-25T05:47:49;12.80;;;5.87;;
10132;SDS011;5106;50.926;7.080;2023-04-25T05:50:15;15.10;;;5.67;;
10132;SDS011;5106;50.926;7.080;2023-04-25T05:52:41;14.80;;;5.83;;
10132;SDS011;5106;50.926;7.080;2023-04-25T05:55:06;11.43;;;5.47;;
10132;SDS011;5106;50.926;7.080;2023-04-25T05:57:32;13.33;;;5.30;;
10132;SDS011;5106;50.926;7.080;2023-04-25T05:59:58;12.70;;;5.63;;
10132;SDS011;5106;50.926;7.080;2023-04-25T06:02:23;16.33;;;5.03;;
10132;SDS011;5106;50.926;7.080;2023-04-25T06:04:49;10.33;;;5.20;;
10132;SDS011;5106;50.926;7.080;2023-04-25T06:07:16;14.83;;;5.37;;
10132;SDS011;5106;50.926;7.080;2023-04-25T06:09:43;14.33;;;5.73;;
10132;SDS011;5106;50.926;7.080;2023-04-25T06:12:08;14.43;;;5.10;;
10132;SDS011;5106;50.926;7.080;2023-04-25T06:14:34;14.93;;;5.17;;
10132;SDS011;5106;50.926;7.080;2023-04-25T06:17:00;8.43;;;4.17;;
10132;SDS011;5106;50.926;7.080;2023-04-25T06:19:31;13.83;;;5.37;;
10132;SDS011;5106;50.926;7.080;2023-04-25T06:21:57;10.67;;;4.93;;
10132;SDS011;5106;50.926;7.080;2023-04-25T06:24:23;10.23;;;5.20;;
10132;SDS011;5106;50.926;7.080;2023-04-25T06:26:49;12.63;;;5.67;;
10132;SDS011;5106;50.926;7.080;2023-04-25T06:29:15;13.23;;;5.10;;
10132;SDS011;5106;50.926;7.080;2023-04-25T06:31:40;10.57;;;4.97;;
10132;SDS011;5106;50.926;7.080;2023-04-25T06:34:06;12.97;;;5.10;;
10132;SDS011;5106;50.926;7.080;2023-04-25T06:36:31;8.87;;;4.63;;
10132;SDS011;5106;50.926;7.080;2023-04-25T06:39:00;10.00;;;5.10;;
10132;SDS011;5106;50.926;7.080;2023-04-25T06:41:25;13.23;;;5.23;;
10132;SDS011;5106;50.926;7.080;2023-04-25T06:43:51;15.10;;;4.93;;
10132;SDS011;5106;50.926;7.080;2023-04-25T06:46:16;12.87;;;4.80;;
10132;SDS011;5106;50.926;7.080;2023-04-25T06:48:42;10.80;;;4.67;;
10132;SDS011;5106;50.926;7.080;2023-04-25T06:51:08;13.30;;;4.73;;
10132;SDS011;5106;50.926;7.080;2023-04-25T06:53:33;11.47;;;5.03;;
10132;SDS011;5106;50.926;7.080;2023-04-25T06:55:59;10.10;;;4.33;;
10132;SDS011;5106;50.926;7.080;2023-04-25T06:58:24;11.90;;;4.43;;
10132;SDS011;5106;50.926;7.080;2023-04-25T07:00:51;11.33;;;4.43;;
10132;SDS011;5106;50.926;7.080;2023-04-25T07:03:16;13.07;;;4.70;;
10132;SDS011;5106;50.926;7.080;2023-04-25T07:05:42;9.43;;;4.37;;
10132;SDS011;5106;50.926;7.080;2023-04-25T07:08:08;13.90;;;4.40;;
10132;SDS011;5106;50.926;7.080;2023-04-25T07:10:34;12.97;;;4.23;;
10132;SDS011;5106;50.926;7.080;2023-04-25T07:13:00;11.30;;;4.10;;
10132;SDS011;5106;50.926;7.080;2023-04-25T07:15:25;10.13;;;3.87;;
10132;SDS011;5106;50.926;7.080;2023-04-25T07:17:51;14.37;;;4.30;;
10132;SDS011;5106;50.926;7.080;2023-04-25T07:20:16;16.80;;;4.47;;
10132;SDS011;5106;50.926;7.080;2023-04-25T07:22:42;13.17;;;3.70;;
10132;SDS011;5106;50.926;7.080;2023-04-25T07:25:08;13.23;;;3.87;;
10132;SDS011;5106;50.926;7.080;2023-04-25T07:27:33;12.00;;;3.70;;
10132;SDS011;5106;50.926;7.080;2023-04-25T07:29:59;11.57;;;3.57;;
10132;SDS011;5106;50.926;7.080;2023-04-25T07:32:25;11.07;;;3.07;;
10132;SDS011;5106;50.926;7.080;2023-04-25T07:34:51;6.27;;;3.10;;
10132;SDS011;5106;50.926;7.080;2023-04-25T07:37:17;13.83;;;3.20;;
10132;SDS011;5106;50.926;7.080;2023-04-25T07:39:43;11.30;;;3.73;;
10132;SDS011;5106;50.926;7.080;2023-04-25T07:42:11;12.47;;;3.93;;
10132;SDS011;5106;50.926;7.080;2023-04-25T07:44:36;9.47;;;3.60;;
10132;SDS011;5106;50.926;7.080;2023-04-25T07:47:05;12.33;;;3.77;;
10132;SDS011;5106;50.926;7.080;2023-04-25T07:49:34;17.73;;;3.80;;
10132;SDS011;5106;50.926;7.080;2023-04-25T07:52:00;8.90;;;3.40;;
10132;SDS011;5106;50.926;7.080;2023-04-25T07:54:27;10.50;;;3.53;;
10132;SDS011;5106;50.926;7.080;2023-04-25T07:56:52;10.97;;;3.43;;
10132;SDS011;5106;50.926;7.080;2023-04-25T07:59:18;10.67;;;3.30;;
10132;SDS011;5106;50.926;7.080;2023-04-25T08:01:44;7.40;;;3.00;;
10132;SDS011;5106;50.926;7.080;2023-04-25T08:04:10;7.57;;;2.80;;
10132;SDS011;5106;50.926;7.080;2023-04-25T08:06:36;8.37;;;3.13;;
10132;SDS011;5106;50.926;7.080;2023-04-25T08:09:02;7.73;;;3.50;;
10132;SDS011;5106;50.926;7.080;2023-04-25T08:11:28;10.33;;;4.30;;
10132;SDS011;5106;50.926;7.080;2023-04-25T08:13:53;10.43;;;3.53;;
10132;SDS011;5106;50.926;7.080;2023-04-25T08:16:19;7.03;;;3.67;;
10132;SDS011;5106;50.926;7.080;2023-04-25T08:18:45;10.07;;;3.93;;
10132;SDS011;5106;50.926;7.080;2023-04-25T08:21:10;11.10;;;3.90;;
10132;SDS011;5106;50.926;7.080;2023-04-25T08:23:38;8.20;;;3.30;;
10132;SDS011;5106;50.926;7.080;2023-04-25T08:26:03;8.95;;;3.78;;
10132;SDS011;5106;50.926;7.080;2023-04-25T08:28:30;11.77;;;3.42;;
10132;SDS011;5106;50.926;7.080;2023-04-25T08:30:56;7.77;;;3.10;;
10132;SDS011;5106;50.926;7.080;2023-04-25T08:33:22;7.00;;;2.80;;
10132;SDS011;5106;50.926;7.080;2023-04-25T08:35:48;6.88;;;3.40;;
10132;SDS011;5106;50.926;7.080;2023-04-25T08:38:13;7.67;;;2.20;;
10132;SDS011;5106;50.926;7.080;2023-04-25T08:40:39;8.50;;;2.80;;
10132;SDS011;5106;50.926;7.080;2023-04-25T08:43:06;6.90;;;2.43;;
10132;SDS011;5106;50.926;7.080;2023-04-25T08:45:36;6.30;;;2.53;;
10132;SDS011;5106;50.926;7.080;2023-04-25T08:48:06;7.83;;;2.57;;
10132;SDS011;5106;50.926;7.080;2023-04-25T08:50:35;7.93;;;2.43;;
10132;SDS011;5106;50.926;7.080;2023-04-25T08:53:04;7.57;;;2.70;;
10132;SDS011;5106;50.926;7.080;2023-04-25T08:55:34;7.97;;;2.33;;
10132;SDS011;5106;50.926;7.080;2023-04-25T08:58:04;7.07;;;2.60;;
10132;SDS011;5106;50.926;7.080;2023-04-25T09:00:30;6.80;;;2.42;;
10132;SDS011;5106;50.926;7.080;2023-04-25T09:02:56;7.75;;;2.28;;
10132;SDS011;5106;50.926;7.080;2023-04-25T09:05:23;6.07;;;2.30;;
10132;SDS011;5106;50.926;7.080;2023-04-25T09:07:49;6.30;;;2.67;;
10132;SDS011;5106;50.926;7.080;2023-04-25T09:10:15;7.78;;;2.70;;
10132;SDS011;5106;50.926;7.080;2023-04-25T09:12:40;9.90;;;2.60;;
10132;SDS011;5106;50.926;7.080;2023-04-25T09:15:08;10.33;;;2.63;;
10132;SDS011;5106;50.926;7.080;2023-04-25T09:17:35;9.57;;;2.90;;
10132;SDS011;5106;50.926;7.080;2023-04-25T09:20:05;8.32;;;3.00;;
10132;SDS011;5106;50.926;7.080;2023-04-25T09:22:33;11.67;;;2.87;;
10132;SDS011;5106;50.926;7.080;2023-04-25T09:25:02;6.97;;;2.53;;
10132;SDS011;5106;50.926;7.080;2023-04-25T09:27:35;5.60;;;2.20;;
10132;SDS011;5106;50.926;7.080;2023-04-25T09:30:01;9.37;;;2.60;;
10132;SDS011;5106;50.926;7.080;2023-04-25T09:32:27;11.00;;;2.88;;
10132;SDS011;5106;50.926;7.080;2023-04-25T09:34:54;6.83;;;2.60;;
10132;SDS011;5106;50.926;7.080;2023-04-25T09:37:25;8.93;;;2.73;;
10132;SDS011;5106;50.926;7.080;2023-04-25T09:39:59;7.57;;;2.95;;
10132;SDS011;5106;50.926;7.080;2023-04-25T09:42:28;8.65;;;2.65;;
10132;SDS011;5106;50.926;7.080;2023-04-25T09:44:56;8.35;;;2.65;;
10132;SDS011;5106;50.926;7.080;2023-04-25T09:47:23;8.77;;;3.20;;
10132;SDS011;5106;50.926;7.080;2023-04-25T09:49:49;8.48;;;2.80;;
10132;SDS011;5106;50.926;7.080;2023-04-25T09:52:16;5.80;;;2.83;;
10132;SDS011;5106;50.926;7.080;2023-04-25T09:54:47;5.82;;;2.22;;
10132;SDS011;5106;50.926;7.080;2023-04-25T09:57:14;8.02;;;2.30;;
10132;SDS011;5106;50.926;7.080;2023-04-25T09:59:45;9.40;;;2.97;;
10132;SDS011;5106;50.926;7.080;2023-04-25T10:02:16;7.60;;;2.08;;
10132;SDS011;5106;50.926;7.080;2023-04-25T10:04:46;8.80;;;2.30;;
10132;SDS011;5106;50.926;7.080;2023-04-25T10:07:14;6.28;;;2.17;;
10132;SDS011;5106;50.926;7.080;2023-04-25T10:09:40;8.25;;;2.50;;
10132;SDS011;5106;50.926;7.080;2023-04-25T10:12:09;7.20;;;2.28;;
10132;SDS011;5106;50.926;7.080;2023-04-25T10:14:35;7.72;;;2.10;;
10132;SDS011;5106;50.926;7.080;2023-04-25T10:17:01;9.57;;;2.05;;
10132;SDS011;5106;50.926;7.080;2023-04-25T10:19:27;6.68;;;2.28;;
10132;SDS011;5106;50.926;7.080;2023-04-25T10:24:41;6.20;;;2.78;;
10132;SDS011;5106;50.926;7.080;2023-04-25T10:27:08;5.95;;;2.00;;
10132;SDS011;5106;50.926;7.080;2023-04-25T10:29:35;4.85;;;2.13;;
10132;SDS011;5106;50.926;7.080;2023-04-25T10:32:02;5.00;;;2.22;;
10132;SDS011;5106;50.926;7.080;2023-04-25T10:34:37;4.80;;;2.38;;
10132;SDS011;5106;50.926;7.080;2023-04-25T10:37:04;3.55;;;2.00;;
10132;SDS011;5106;50.926;7.080;2023-04-25T10:39:33;5.87;;;2.07;;
10132;SDS011;5106;50.926;7.080;2023-04-25T10:41:59;9.98;;;2.20;;
10132;SDS011;5106;50.926;7.080;2023-04-25T10:44:27;6.97;;;2.23;;
10132;SDS011;5106;50.926;7.080;2023-04-25T10:47:03;5.03;;;1.90;;
10132;SDS011;5106;50.926;7.080;2023-04-25T10:54:56;6.93;;;1.80;;
10132;SDS011;5106;50.926;7.080;2023-04-25T11:00:00;7.50;;;1.60;;
10132;SDS011;5106;50.926;7.080;2023-04-25T11:02:43;3.33;;;1.63;;
10132;SDS011;5106;50.926;7.080;2023-04-25T11:07:52;4.10;;;1.73;;
10132;SDS011;5106;50.926;7.080;2023-04-25T11:10:32;6.63;;;1.77;;
10132;SDS011;5106;50.926;7.080;2023-04-25T11:13:00;5.43;;;2.00;;
10132;SDS011;5106;50.926;7.080;2023-04-25T11:15:26;5.20;;;2.00;;
10132;SDS011;5106;50.926;7.080;2023-04-25T11:17:52;4.72;;;1.85;;
10132;SDS011;5106;50.926;7.080;2023-04-25T11:20:18;5.27;;;1.70;;
10132;SDS011;5106;50.926;7.080;2023-04-25T11:22:45;6.50;;;1.85;;
10132;SDS011;5106;50.926;7.080;2023-04-25T11:25:11;6.43;;;2.37;;
10132;SDS011;5106;50.926;7.080;2023-04-25T11:27:55;6.45;;;2.20;;
10132;SDS011;5106;50.926;7.080;2023-04-25T11:30:23;4.47;;;1.63;;
10132;SDS011;5106;50.926;7.080;2023-04-25T11:32:51;7.32;;;2.10;;
10132;SDS011;5106;50.926;7.080;2023-04-25T11:35:17;8.30;;;1.93;;
10132;SDS011;5106;50.926;7.080;2023-04-25T11:37:43;5.97;;;1.83;;
10132;SDS011;5106;50.926;7.080;2023-04-25T11:40:10;9.38;;;2.00;;
10132;SDS011;5106;50.926;7.080;2023-04-25T11:42:42;7.18;;;1.70;;
10132;SDS011;5106;50.926;7.080;2023-04-25T11:45:09;4.35;;;1.85;;
10132;SDS011;5106;50.926;7.080;2023-04-25T11:47:35;3.63;;;1.40;;
10132;SDS011;5106;50.926;7.080;2023-04-25T11:50:02;3.97;;;1.70;;
10132;SDS011;5106;50.926;7.080;2023-04-25T11:55:01;5.03;;;1.90;;
10132;SDS011;5106;50.926;7.080;2023-04-25T11:57:30;4.68;;;1.48;;
10132;SDS011;5106;50.926;7.080;2023-04-25T12:00:04;3.17;;;1.50;;
10132;SDS011;5106;50.926;7.080;2023-04-25T12:02:31;6.30;;;1.92;;
10132;SDS011;5106;50.926;7.080;2023-04-25T12:04:59;5.00;;;1.55;;
10132;SDS011;5106;50.926;7.080;2023-04-25T12:07:29;3.33;;;1.50;;
10132;SDS011;5106;50.926;7.080;2023-04-25T12:09:55;3.70;;;1.70;;
10132;SDS011;5106;50.926;7.080;2023-04-25T12:12:20;6.07;;;1.77;;
10132;SDS011;5106;50.926;7.080;2023-04-25T12:14:47;5.78;;;1.70;;
10132;SDS011;5106;50.926;7.080;2023-04-25T12:17:14;4.63;;;1.70;;
10132;SDS011;5106;50.926;7.080;2023-04-25T12:19:40;3.63;;;1.45;;
10132;SDS011;5106;50.926;7.080;2023-04-25T12:22:18;3.67;;;1.73;;
10132;SDS011;5106;50.926;7.080;2023-04-25T12:24:48;3.53;;;1.50;;
10132;SDS011;5106;50.926;7.080;2023-04-25T12:27:16;3.40;;;1.77;;
10132;SDS011;5106;50.926;7.080;2023-04-25T12:29:53;6.95;;;1.85;;
10132;SDS011;5106;50.926;7.080;2023-04-25T12:32:19;2.30;;;1.38;;
10132;SDS011;5106;50.926;7.080;2023-04-25T12:34:45;5.38;;;1.70;;
10132;SDS011;5106;50.926;7.080;2023-04-25T12:37:11;8.88;;;1.70;;
10132;SDS011;5106;50.926;7.080;2023-04-25T12:39:37;4.05;;;1.63;;
10132;SDS011;5106;50.926;7.080;2023-04-25T12:42:02;7.10;;;1.60;;
10132;SDS011;5106;50.926;7.080;2023-04-25T12:44:28;5.32;;;1.85;;
10132;SDS011;5106;50.926;7.080;2023-04-25T12:46:54;6.00;;;1.65;;
10132;SDS011;5106;50.926;7.080;2023-04-25T12:49:20;4.80;;;1.60;;
10132;SDS011;5106;50.926;7.080;2023-04-25T12:51:45;3.42;;;1.40;;
10132;SDS011;5106;50.926;7.080;2023-04-25T12:54:11;3.70;;;1.40;;
10132;SDS011;5106;50.926;7.080;2023-04-25T12:56:37;4.78;;;1.60;;
10132;SDS011;5106;50.926;7.080;2023-04-25T12:59:03;4.90;;;2.10;;
10132;SDS011;5106;50.926;7.080;2023-04-25T13:01:29;3.78;;;1.60;;
10132;SDS011;5106;50.926;7.080;2023-04-25T13:03:55;3.47;;;1.17;;
10132;SDS011;5106;50.926;7.080;2023-04-25T13:06:21;3.47;;;1.55;;
10132;SDS011;5106;50.926;7.080;2023-04-25T13:08:47;3.65;;;1.55;;
10132;SDS011;5106;50.926;7.080;2023-04-25T13:11:13;4.78;;;1.70;;
10132;SDS011;5106;50.926;7.080;2023-04-25T13:13:39;3.08;;;1.40;;
10132;SDS011;5106;50.926;7.080;2023-04-25T13:16:05;5.47;;;1.83;;
10132;SDS011;5106;50.926;7.080;2023-04-25T13:18:32;2.58;;;1.58;;
10132;SDS011;5106;50.926;7.080;2023-04-25T13:20:58;4.03;;;1.60;;
10132;SDS011;5106;50.926;7.080;2023-04-25T13:23:25;5.35;;;1.70;;
10132;SDS011;5106;50.926;7.080;2023-04-25T13:25:52;2.67;;;1.42;;
10132;SDS011;5106;50.926;7.080;2023-04-25T13:28:17;3.40;;;1.42;;
10132;SDS011;5106;50.926;7.080;2023-04-25T13:30:44;3.95;;;1.40;;
10132;SDS011;5106;50.926;7.080;2023-04-25T13:33:13;4.05;;;1.40;;
10132;SDS011;5106;50.926;7.080;2023-04-25T13:35:39;4.90;;;1.30;;
10132;SDS011;5106;50.926;7.080;2023-04-25T13:38:05;3.53;;;1.00;;
10132;SDS011;5106;50.926;7.080;2023-04-25T13:40:30;2.83;;;1.60;;
10132;SDS011;5106;50.926;7.080;2023-04-25T13:42:57;2.33;;;1.27;;
10132;SDS011;5106;50.926;7.080;2023-04-25T13:45:24;4.72;;;1.50;;
10132;SDS011;5106;50.926;7.080;2023-04-25T13:47:50;4.05;;;1.70;;
10132;SDS011;5106;50.926;7.080;2023-04-25T13:50:16;4.88;;;1.60;;
10132;SDS011;5106;50.926;7.080;2023-04-25T13:52:42;4.28;;;1.40;;
10132;SDS011;5106;50.926;7.080;2023-04-25T13:55:08;4.78;;;1.40;;
10132;SDS011;5106;50.926;7.080;2023-04-25T13:57:34;3.00;;;1.50;;
10132;SDS011;5106;50.926;7.080;2023-04-25T14:00:01;2.92;;;1.30;;
10132;SDS011;5106;50.926;7.080;2023-04-25T14:02:46;4.63;;;1.52;;
10132;SDS011;5106;50.926;7.080;2023-04-25T14:05:11;3.75;;;1.48;;
10132;SDS011;5106;50.926;7.080;2023-04-25T14:07:37;3.33;;;1.67;;
10132;SDS011;5106;50.926;7.080;2023-04-25T14:10:03;5.32;;;1.88;;
10132;SDS011;5106;50.926;7.080;2023-04-25T14:12:30;3.08;;;1.60;;
10132;SDS011;5106;50.926;7.080;2023-04-25T14:14:56;3.60;;;1.70;;
10132;SDS011;5106;50.926;7.080;2023-04-25T14:17:21;7.15;;;2.25;;
10132;SDS011;5106;50.926;7.080;2023-04-25T14:19:49;3.67;;;1.55;;
10132;SDS011;5106;50.926;7.080;2023-04-25T14:22:15;5.05;;;1.95;;
10132;SDS011;5106;50.926;7.080;2023-04-25T14:24:41;7.43;;;2.03;;
10132;SDS011;5106;50.926;7.080;2023-04-25T14:27:07;5.75;;;2.00;;
10132;SDS011;5106;50.926;7.080;2023-04-25T14:29:32;6.28;;;2.33;;
10132;SDS011;5106;50.926;7.080;2023-04-25T14:31:58;6.07;;;2.10;;
10132;SDS011;5106;50.926;7.080;2023-04-25T14:34:24;4.63;;;1.98;;
10132;SDS011;5106;50.926;7.080;2023-04-25T14:36:51;4.85;;;1.85;;
10132;SDS011;5106;50.926;7.080;2023-04-25T14:39:19;3.08;;;1.88;;
10132;SDS011;5106;50.926;7.080;2023-04-25T14:41:45;3.80;;;1.80;;
10132;SDS011;5106;50.926;7.080;2023-04-25T14:44:10;4.03;;;1.83;;
10132;SDS011;5106;50.926;7.080;2023-04-25T14:46:36;6.20;;;2.30;;
10132;SDS011;5106;50.926;7.080;2023-04-25T14:49:02;5.07;;;1.90;;
10132;SDS011;5106;50.926;7.080;2023-04-25T14:51:28;4.05;;;1.60;;
10132;SDS011;5106;50.926;7.080;2023-04-25T14:53:54;3.80;;;2.00;;
10132;SDS011;5106;50.926;7.080;2023-04-25T14:56:20;3.95;;;1.75;;
10132;SDS011;5106;50.926;7.080;2023-04-25T14:58:46;3.65;;;1.30;;
10132;SDS011;5106;50.926;7.080;2023-04-25T15:01:12;3.47;;;1.20;;
10132;SDS011;5106;50.926;7.080;2023-04-25T15:03:40;3.47;;;1.10;;
10132;SDS011;5106;50.926;7.080;2023-04-25T15:06:06;2.50;;;1.10;;
10132;SDS011;5106;50.926;7.080;2023-04-25T15:08:32;3.13;;;1.30;;
10132;SDS011;5106;50.926;7.080;2023-04-25T15:10:58;3.15;;;1.17;;